Time;durP1;ratioP1;P1;durP2;ratioP2;P2;SDS_P1;SDS_P2;PMS_P1;PMS_P2;Temp;Humidity;BMP_temperature;BMP_pressure;BME280_temperature;BME280_humidity;BME280_pressure;Samples;Min_cycle;Max_cycle;Signal;HPM_P1;HPM_P2
2022/09/28 02:46:40;;;;;;;2.35;0.20;;;10.20;99.90;;;;;;6029420;23;93715;31
2022/09/28 02:49:34;;;;;;;0.90;0.20;;;10.20;99.90;;;;;;4875615;28;92047;-83
2022/09/28 02:52:25;;;;;;;1.95;0.20;;;10.20;99.90;;;;;;4876721;28;91509;-77
2022/09/28 02:54:59;;;;;;;1.98;0.20;;;10.10;99.90;;;;;;4878490;28;91385;-77
2022/09/28 02:57:44;;;;;;;1.20;0.20;;;10.20;99.90;;;;;;4888413;28;92010;-77
2022/09/28 03:00:13;;;;;;;1.88;0.20;;;10.20;99.90;;;;;;4875614;28;91365;-79
2022/09/28 03:03:02;;;;;;;4.70;0.45;;;10.20;99.90;;;;;;4883666;28;91204;-77
2022/09/28 03:06:05;;;;;;;1.25;0.10;;;10.20;99.90;;;;;;4882270;28;93175;-77
2022/09/28 03:08:46;;;;;;;1.55;0.20;;;10.20;99.90;;;;;;4876286;28;92112;-82
2022/09/28 03:11:23;;;;;;;1.10;0.30;;;10.20;99.90;;;;;;4901824;28;91790;-79
2022/09/28 03:13:50;;;;;;;2.80;0.10;;;10.10;99.90;;;;;;4897804;28;91612;-77
2022/09/28 03:16:18;;;;;;;2.15;0.20;;;10.00;99.90;;;;;;4882539;28;92349;-77
2022/09/28 03:18:45;;;;;;;1.20;0.20;;;10.10;99.90;;;;;;4883795;28;91616;-78
2022/09/28 03:21:12;;;;;;;1.58;0.20;;;10.10;99.90;;;;;;4882817;28;91179;-77
2022/09/28 03:23:38;;;;;;;0.70;0.22;;;10.20;99.90;;;;;;4881272;28;91428;-77
2022/09/28 03:26:06;;;;;;;1.20;0.17;;;10.20;99.90;;;;;;4880413;28;91567;-78
2022/09/28 03:28:33;;;;;;;0.85;0.10;;;10.20;99.90;;;;;;4886038;28;91207;-77
2022/09/28 03:30:59;;;;;;;1.63;0.10;;;10.10;99.90;;;;;;4901379;28;92599;-78
2022/09/28 03:33:24;;;;;;;1.55;0.15;;;10.10;99.90;;;;;;4895176;28;91532;-77
2022/09/28 03:35:50;;;;;;;0.40;0.00;;;10.10;99.90;;;;;;4882213;28;91901;-76
2022/09/28 03:38:17;;;;;;;1.00;0.10;;;10.10;99.90;;;;;;4883850;28;91716;-79
2022/09/28 03:40:43;;;;;;;2.15;0.13;;;10.10;99.90;;;;;;4902343;28;91150;-78
2022/09/28 03:43:09;;;;;;;1.02;0.10;;;10.10;99.90;;;;;;4891613;28;91321;-77
2022/09/28 03:45:35;;;;;;;0.55;0.20;;;10.10;99.90;;;;;;4876351;28;92309;-79
2022/09/28 03:48:01;;;;;;;0.90;0.10;;;10.20;99.90;;;;;;4885836;28;91268;-76
2022/09/28 03:50:26;;;;;;;1.60;0.10;;;10.20;99.90;;;;;;4882112;28;91320;-76
2022/09/28 03:52:52;;;;;;;1.35;0.30;;;10.20;99.90;;;;;;4878907;28;92349;-78
2022/09/28 03:55:17;;;;;;;2.80;0.20;;;10.20;99.90;;;;;;4876533;28;92711;-82
2022/09/28 03:57:43;;;;;;;1.95;0.40;;;10.20;99.90;;;;;;4864265;28;92858;-79
2022/09/28 04:00:09;;;;;;;1.40;0.20;;;10.10;99.90;;;;;;4895670;28;91242;-80
2022/09/28 04:02:35;;;;;;;4.10;0.30;;;10.00;99.90;;;;;;4889062;28;92170;-78
2022/09/28 04:05:01;;;;;;;0.63;0.10;;;10.10;99.90;;;;;;4882014;28;92224;-79
2022/09/28 04:07:26;;;;;;;0.85;0.15;;;10.10;99.90;;;;;;4879406;28;93403;-78
2022/09/28 04:09:52;;;;;;;0.60;0.10;;;10.00;99.90;;;;;;4895394;28;91819;-79
2022/09/28 04:12:18;;;;;;;1.27;0.10;;;10.00;99.90;;;;;;4883429;28;91142;-78
2022/09/28 04:14:43;;;;;;;0.57;0.10;;;10.00;99.90;;;;;;4878017;28;91714;-79
2022/09/28 04:17:09;;;;;;;1.10;0.13;;;10.00;99.90;;;;;;4869651;28;92017;-79
2022/09/28 04:19:35;;;;;;;0.80;0.17;;;9.90;99.90;;;;;;4882403;28;92257;-78
2022/09/28 04:22:01;;;;;;;0.75;0.10;;;9.90;99.90;;;;;;4885146;28;92015;-80
2022/09/28 04:24:26;;;;;;;0.70;0.17;;;9.90;99.90;;;;;;4885739;28;91616;-78
2022/09/28 04:29:14;;;;;;;2.05;0.20;;;9.90;99.90;;;;;;4868826;28;93844;-80
2022/09/28 04:29:42;;;;;;;1.05;0.10;;;9.90;99.90;;;;;;4889275;28;91194;-80
2022/09/28 04:32:09;;;;;;;1.25;0.10;;;9.80;99.90;;;;;;4891551;28;91861;-77
2022/09/28 04:34:35;;;;;;;1.75;0.13;;;9.80;99.90;;;;;;4884493;28;92298;-79
2022/09/28 04:37:00;;;;;;;1.38;0.10;;;9.80;99.90;;;;;;4884653;28;91912;-78
2022/09/28 04:39:26;;;;;;;1.05;0.10;;;9.80;99.90;;;;;;4889514;28;91298;-79
2022/09/28 04:41:52;;;;;;;1.55;0.20;;;9.80;99.90;;;;;;4883730;28;91509;-79
2022/09/28 04:44:17;;;;;;;0.85;0.10;;;9.80;99.90;;;;;;4883752;28;92600;-79
2022/09/28 04:46:43;;;;;;;3.30;0.20;;;9.70;99.90;;;;;;4879096;28;92280;-79
2022/09/28 04:49:10;;;;;;;0.90;0.20;;;9.80;99.90;;;;;;4885165;28;91214;-81
2022/09/28 04:51:35;;;;;;;2.25;0.30;;;9.70;99.90;;;;;;4879909;28;91406;-78
2022/09/28 04:54:01;;;;;;;1.25;0.10;;;9.70;99.90;;;;;;4879712;28;91723;-77
2022/09/28 04:56:26;;;;;;;2.63;0.30;;;9.70;99.90;;;;;;4882786;28;92365;-79
2022/09/28 04:58:52;;;;;;;0.70;0.20;;;9.70;99.90;;;;;;4881146;28;91268;-78
2022/09/28 05:01:22;;;;;;;1.08;0.10;;;9.70;99.90;;;;;;4877402;28;90901;-82
2022/09/28 05:03:48;;;;;;;3.40;0.20;;;9.70;99.90;;;;;;4881128;28;92644;-80
2022/09/28 05:06:14;;;;;;;0.73;0.10;;;9.70;99.90;;;;;;4881998;28;93264;-80
2022/09/28 05:08:41;;;;;;;2.10;0.20;;;9.70;99.90;;;;;;4884431;28;92518;-79
2022/09/28 05:11:10;;;;;;;4.28;0.10;;;9.70;99.90;;;;;;4883249;28;91615;-79
2022/09/28 05:13:44;;;;;;;3.28;0.20;;;9.70;99.90;;;;;;4883678;28;91876;-81
2022/09/28 05:16:10;;;;;;;1.55;0.10;;;9.70;99.90;;;;;;4873955;28;91959;-79
2022/09/28 05:18:36;;;;;;;1.95;0.10;;;9.70;99.90;;;;;;4884689;28;91590;-80
2022/09/28 05:21:02;;;;;;;1.25;0.10;;;9.70;99.90;;;;;;4883481;28;92029;-82
2022/09/28 05:23:28;;;;;;;0.60;0.10;;;9.70;99.90;;;;;;4883293;28;91575;-80
2022/09/28 05:25:53;;;;;;;1.33;0.10;;;9.70;99.90;;;;;;4883670;28;92012;-79
2022/09/28 05:28:24;;;;;;;1.00;0.20;;;9.80;99.90;;;;;;4883132;28;91974;-81
2022/09/28 05:30:49;;;;;;;2.28;0.20;;;9.80;99.90;;;;;;4880724;28;92766;-79
2022/09/28 05:33:15;;;;;;;1.63;0.10;;;9.80;99.90;;;;;;4879217;28;93302;-79
2022/09/28 05:35:41;;;;;;;1.05;0.10;;;9.80;99.90;;;;;;4876311;28;92620;-79
2022/09/28 05:38:06;;;;;;;0.50;0.10;;;9.70;99.90;;;;;;4881702;28;92035;-81
2022/09/28 05:40:32;;;;;;;2.92;0.20;;;9.80;99.90;;;;;;4883866;28;91231;-80
2022/09/28 05:43:00;;;;;;;0.75;0.00;;;9.80;99.90;;;;;;4883957;28;92193;-80
2022/09/28 05:45:25;;;;;;;0.47;0.10;;;9.80;99.90;;;;;;4875362;28;92132;-79
2022/09/28 05:47:51;;;;;;;1.55;0.40;;;9.80;99.90;;;;;;4870745;28;92384;-79
2022/09/28 05:50:17;;;;;;;2.28;0.20;;;9.70;99.90;;;;;;4882971;28;91341;-79
2022/09/28 05:52:43;;;;;;;2.85;0.60;;;9.60;99.90;;;;;;4870097;28;92390;-81
2022/09/28 05:55:10;;;;;;;1.20;0.20;;;9.70;99.90;;;;;;4877084;28;91891;-81
2022/09/28 05:57:35;;;;;;;14.95;6.68;;;9.70;99.90;;;;;;4878489;28;92989;-80
2022/09/28 06:00:07;;;;;;;1.27;0.20;;;9.70;99.90;;;;;;4882372;28;91418;-79
2022/09/28 06:02:34;;;;;;;1.35;0.38;;;9.70;99.90;;;;;;4879556;28;91601;-78
2022/09/28 06:04:59;;;;;;;1.17;0.00;;;9.70;99.90;;;;;;4873179;28;92112;-81
2022/09/28 06:07:25;;;;;;;0.88;0.10;;;9.70;99.90;;;;;;4881819;28;91486;-80
2022/09/28 06:09:51;;;;;;;0.55;0.10;;;9.80;99.90;;;;;;4880815;28;91278;-79
2022/09/28 06:12:18;;;;;;;0.30;0.10;;;9.70;99.90;;;;;;4883623;28;92306;-79
2022/09/28 06:14:44;;;;;;;0.43;0.10;;;9.70;99.90;;;;;;4886005;28;91622;-80
2022/09/28 06:17:10;;;;;;;0.10;0.00;;;9.70;99.90;;;;;;4883609;28;91585;-80
2022/09/28 06:19:35;;;;;;;0.40;0.10;;;9.70;99.90;;;;;;4870937;28;91729;-79
2022/09/28 06:22:01;;;;;;;0.73;0.10;;;9.70;99.90;;;;;;4879584;28;93321;-80
2022/09/28 06:24:27;;;;;;;0.38;0.00;;;9.70;99.90;;;;;;4880287;28;91971;-80
2022/09/28 06:26:52;;;;;;;0.85;0.10;;;9.70;99.90;;;;;;4885452;28;91745;-79
2022/09/28 06:29:18;;;;;;;1.05;0.10;;;9.70;99.90;;;;;;4880616;28;92060;-79
2022/09/28 06:31:44;;;;;;;0.40;0.03;;;9.80;99.90;;;;;;4882797;28;91741;-82
2022/09/28 06:34:11;;;;;;;1.38;0.10;;;9.80;99.90;;;;;;4881370;28;91896;-79
2022/09/28 06:36:37;;;;;;;0.38;0.00;;;9.80;99.90;;;;;;4884708;28;91538;-79
2022/09/28 06:39:03;;;;;;;1.48;0.10;;;9.80;99.90;;;;;;4882614;28;90605;-79
2022/09/28 06:41:29;;;;;;;1.42;0.08;;;9.80;99.90;;;;;;4875002;28;91684;-80
2022/09/28 06:43:55;;;;;;;0.82;0.00;;;9.80;99.90;;;;;;4867379;28;91915;-79
2022/09/28 06:46:21;;;;;;;0.85;0.10;;;9.90;99.90;;;;;;4882854;28;92541;-82
2022/09/28 06:48:47;;;;;;;0.35;0.05;;;9.90;99.90;;;;;;4868479;28;92156;-82
2022/09/28 06:51:12;;;;;;;0.45;0.10;;;10.00;99.90;;;;;;4874110;28;91584;-80
2022/09/28 06:53:38;;;;;;;0.68;0.10;;;10.00;99.90;;;;;;4879287;28;92712;-79
2022/09/28 06:56:08;;;;;;;0.60;0.43;;;9.90;99.90;;;;;;4885305;28;92788;-80
2022/09/28 06:58:33;;;;;;;0.98;0.20;;;9.90;99.90;;;;;;4868741;28;91654;-79
2022/09/28 07:00:59;;;;;;;6.57;3.47;;;10.00;99.90;;;;;;4873987;28;91617;-79
2022/09/28 07:03:25;;;;;;;3.22;0.90;;;10.00;99.90;;;;;;4877036;28;92290;-79
2022/09/28 07:05:53;;;;;;;24.58;11.50;;;10.10;99.90;;;;;;4890114;28;91536;-79
2022/09/28 07:08:23;;;;;;;3.97;1.40;;;10.00;99.90;;;;;;4880655;28;92035;-82
2022/09/28 07:10:55;;;;;;;;;;;10.00;99.90;;;;;;4870583;28;92877;-79
2022/09/28 07:13:22;;;;;;;0.73;0.05;;;10.00;99.90;;;;;;4880600;28;91738;-79
2022/09/28 07:15:52;;;;;;;1.33;0.70;;;9.90;99.90;;;;;;4882395;28;91358;-79
2022/09/28 07:18:18;;;;;;;0.52;0.10;;;10.00;99.90;;;;;;4881797;28;91433;-80
2022/09/28 07:20:43;;;;;;;0.40;0.10;;;10.00;99.90;;;;;;4882416;28;92111;-79
2022/09/28 07:23:09;;;;;;;0.65;0.00;;;10.00;99.90;;;;;;4882268;28;93806;-79
2022/09/28 07:25:36;;;;;;;0.30;0.03;;;10.00;99.90;;;;;;4882832;28;91710;-79
2022/09/28 07:28:03;;;;;;;0.60;0.10;;;9.90;99.90;;;;;;4880449;28;91411;-79
2022/09/28 07:30:32;;;;;;;1.75;0.30;;;9.90;99.90;;;;;;4884810;28;92324;-79
2022/09/28 07:33:00;;;;;;;0.68;0.10;;;9.90;99.90;;;;;;4883829;28;91824;-79
2022/09/28 07:35:26;;;;;;;0.45;0.00;;;9.90;99.90;;;;;;4884548;28;93320;-79
2022/09/28 07:38:01;;;;;;;0.47;0.10;;;9.90;99.90;;;;;;4881755;28;93114;-79
2022/09/28 07:43:12;;;;;;;0.20;0.00;;;10.00;99.90;;;;;;4876842;28;92030;-79
2022/09/28 07:45:38;;;;;;;0.68;0.10;;;10.00;99.90;;;;;;4880834;28;91529;-80
2022/09/28 07:48:04;;;;;;;0.25;0.00;;;10.00;99.90;;;;;;4880113;28;91682;-79
2022/09/28 07:50:30;;;;;;;1.35;0.10;;;10.00;99.90;;;;;;4880187;28;91813;-79
2022/09/28 07:52:57;;;;;;;1.05;0.10;;;10.00;99.90;;;;;;4882709;28;91212;-79
2022/09/28 07:55:23;;;;;;;0.82;0.10;;;10.00;99.90;;;;;;4878505;28;91308;-79
2022/09/28 07:57:59;;;;;;;0.95;0.10;;;10.10;99.90;;;;;;4873012;28;91872;-83
2022/09/28 08:00:26;;;;;;;;;;;10.20;99.90;;;;;;4881118;28;93212;-79
2022/09/28 08:02:51;;;;;;;0.60;0.20;;;10.20;99.90;;;;;;4882306;28;92448;-79
2022/09/28 08:05:17;;;;;;;1.17;0.10;;;10.20;99.90;;;;;;4877201;28;91558;-79
2022/09/28 08:07:43;;;;;;;0.73;0.10;;;10.20;99.90;;;;;;4884191;28;91366;-80
2022/09/28 08:10:09;;;;;;;0.35;0.10;;;10.30;99.90;;;;;;4878116;28;92129;-80
2022/09/28 08:12:37;;;;;;;0.88;0.10;;;10.30;99.90;;;;;;4878688;28;92315;-78
2022/09/28 08:15:03;;;;;;;0.32;0.10;;;10.20;99.90;;;;;;4878446;28;91648;-77
2022/09/28 08:17:29;;;;;;;0.50;0.10;;;10.20;99.90;;;;;;4877465;28;91202;-78
2022/09/28 08:22:38;;;;;;;0.60;0.10;;;10.30;99.90;;;;;;4878768;28;91728;-76
2022/09/28 08:25:05;;;;;;;1.30;0.03;;;10.30;99.90;;;;;;4883999;28;92205;-78
2022/09/28 08:27:30;;;;;;;0.73;0.10;;;10.30;99.90;;;;;;4882465;28;91856;-77
2022/09/28 08:29:56;;;;;;;3.80;0.10;;;10.30;99.90;;;;;;4877674;28;92640;-77
2022/09/28 08:32:23;;;;;;;0.30;0.10;;;10.40;99.90;;;;;;4879006;28;92299;-77
2022/09/28 08:34:49;;;;;;;0.95;0.10;;;10.30;99.90;;;;;;4884512;28;91495;-77
2022/09/28 08:37:14;;;;;;;0.57;0.03;;;10.30;99.90;;;;;;4879261;28;91510;-76
2022/09/28 08:39:40;;;;;;;0.52;0.10;;;10.40;99.90;;;;;;4875993;28;92282;-78
2022/09/28 08:42:30;;;;;;;0.45;0.10;;;10.50;99.90;;;;;;4877317;28;92054;-77
2022/09/28 08:45:04;;;;;;;2.60;0.10;;;10.50;99.90;;;;;;4880849;28;92131;-76
2022/09/28 08:51:05;;;;;;;1.33;0.10;;;10.70;99.90;;;;;;4872677;28;92704;-81
2022/09/28 08:53:51;;;;;;;0.35;0.20;;;10.70;99.90;;;;;;4871284;28;93150;-79
2022/09/28 08:56:41;;;;;;;0.28;0.00;;;10.70;99.90;;;;;;4876336;28;91650;-78
2022/09/28 08:59:34;;;;;;;1.88;0.10;;;10.60;99.90;;;;;;4876532;28;91562;-79
2022/09/28 09:02:03;;;;;;;2.10;0.20;;;10.60;99.90;;;;;;4868407;28;94400;-79
2022/09/28 09:04:31;;;;;;;1.13;0.10;;;10.60;99.90;;;;;;4881745;28;92043;-80
2022/09/28 09:07:16;;;;;;;1.33;0.10;;;10.60;99.90;;;;;;4881429;28;91301;-79
2022/09/28 09:10:05;;;;;;;0.52;0.10;;;10.70;99.90;;;;;;4877904;28;90510;-79
2022/09/28 09:12:43;;;;;;;2.25;0.10;;;10.70;99.90;;;;;;4882837;28;92501;-79
2022/09/28 09:15:27;;;;;;;0.30;0.00;;;10.70;99.90;;;;;;4885632;28;91777;-79
2022/09/28 09:18:18;;;;;;;0.65;0.10;;;10.90;99.90;;;;;;4864550;29;92282;-79
2022/09/28 09:20:57;;;;;;;1.10;0.20;;;10.90;99.90;;;;;;4872833;28;91430;-79
2022/09/28 09:23:37;;;;;;;0.98;0.22;;;11.00;99.90;;;;;;4874795;28;91731;-80
2022/09/28 09:26:11;;;;;;;1.40;0.10;;;10.90;99.90;;;;;;4878086;28;91331;-79
2022/09/28 09:28:37;;;;;;;1.95;0.50;;;10.90;99.90;;;;;;4871990;28;92416;-83
2022/09/28 09:31:20;;;;;;;1.35;0.40;;;11.00;99.90;;;;;;4875889;28;91554;-83
2022/09/28 09:34:02;;;;;;;0.77;0.10;;;11.00;99.90;;;;;;4863828;28;96315;-79
2022/09/28 09:36:46;;;;;;;0.95;0.10;;;11.10;99.90;;;;;;4876413;28;91170;-80
2022/09/28 09:39:26;;;;;;;0.68;0.08;;;11.10;99.90;;;;;;4870566;28;91934;-79
2022/09/28 09:42:13;;;;;;;2.13;0.47;;;11.10;99.90;;;;;;4884129;28;91966;-80
2022/09/28 09:45:43;;;;;;;2.10;0.10;;;11.10;99.90;;;;;;4884547;28;92409;-80
2022/09/28 09:48:19;;;;;;;0.70;0.10;;;11.10;99.90;;;;;;4787297;29;93913;-80
2022/09/28 09:50:49;;;;;;;2.65;1.20;;;11.20;99.90;;;;;;4820228;29;91307;-80
2022/09/28 09:53:41;;;;;;;1.80;0.30;;;11.20;99.90;;;;;;4865147;28;91442;-80
2022/09/28 09:56:39;;;;;;;2.88;0.30;;;11.10;99.90;;;;;;4869645;28;91524;-79
2022/09/28 09:59:10;;;;;;;1.92;0.68;;;11.40;99.90;;;;;;4880287;28;91294;-80
2022/09/28 10:01:38;;;;;;;1.58;0.20;;;11.40;99.90;;;;;;4875753;28;91529;-81
2022/09/28 10:04:26;;;;;;;1.70;0.50;;;11.50;99.90;;;;;;4883849;28;91258;-79
2022/09/28 10:07:00;;;;;;;1.92;0.47;;;11.50;99.90;;;;;;4872669;28;91972;-81
2022/09/28 10:09:29;;;;;;;6.00;2.80;;;11.50;99.90;;;;;;4885530;28;91381;-85
2022/09/28 10:11:55;;;;;;;;;;;11.50;99.90;;;;;;4875130;28;92863;-85
2022/09/28 10:14:24;;;;;;;3.65;0.50;;;11.60;99.90;;;;;;4875541;28;91421;-82
2022/09/28 10:16:52;;;;;;;2.83;0.68;;;11.60;99.90;;;;;;4869956;28;93365;-85
2022/09/28 10:19:24;;;;;;;1.30;0.20;;;11.50;99.90;;;;;;4877074;28;92163;-79
2022/09/28 10:21:53;;;;;;;1.30;0.25;;;11.50;99.90;;;;;;4876779;28;91292;-79
2022/09/28 10:24:47;;;;;;;2.35;0.35;;;11.50;99.90;;;;;;4878186;28;91597;-80
2022/09/28 10:27:20;;;;;;;1.70;0.60;;;11.50;99.90;;;;;;4877557;28;92326;-80
2022/09/28 10:29:52;;;;;;;1.92;0.40;;;11.50;99.90;;;;;;4881548;28;92268;-81
2022/09/28 10:32:20;;;;;;;1.67;0.10;;;11.60;99.90;;;;;;4877500;28;91403;-80
2022/09/28 10:34:46;;;;;;;0.98;0.20;;;11.70;99.90;;;;;;4875290;28;91370;-83
2022/09/28 10:37:12;;;;;;;0.90;0.20;;;11.90;99.90;;;;;;4870974;28;93263;-82
2022/09/28 10:39:54;;;;;;;1.45;0.30;;;12.00;99.90;;;;;;4877040;28;92835;-80
2022/09/28 10:42:27;;;;;;;0.63;0.10;;;12.10;99.90;;;;;;4871694;28;91343;-81
2022/09/28 10:45:01;;;;;;;1.25;0.20;;;12.10;99.90;;;;;;4880229;28;91757;-80
2022/09/28 10:47:31;;;;;;;1.67;0.40;;;12.10;99.90;;;;;;4880942;28;94045;-81
2022/09/28 10:49:58;;;;;;;1.00;0.30;;;12.10;99.90;;;;;;4896352;28;91371;-82
2022/09/28 10:52:39;;;;;;;2.13;0.40;;;12.30;99.90;;;;;;4897251;28;91667;-79
2022/09/28 10:55:19;;;;;;;1.75;0.50;;;12.30;99.90;;;;;;4897545;28;90762;-79
2022/09/28 10:57:46;;;;;;;5.05;1.70;;;12.30;99.90;;;;;;4894955;28;92913;-81
2022/09/28 11:00:39;;;;;;;2.95;0.60;;;12.40;99.90;;;;;;4895736;28;91549;-80
2022/09/28 11:03:14;;;;;;;3.33;1.60;;;12.50;99.90;;;;;;4895085;28;92889;-83
2022/09/28 11:05:42;;;;;;;3.90;0.70;;;12.50;99.90;;;;;;4903370;28;91391;-82
2022/09/28 11:08:25;;;;;;;4.45;2.20;;;12.50;99.90;;;;;;4890509;28;91825;-83
2022/09/28 11:11:05;;;;;;;4.82;1.75;;;12.40;99.90;;;;;;4891276;28;91941;-84
2022/09/28 11:13:38;;;;;;;5.00;2.00;;;12.40;99.90;;;;;;4879071;28;91336;-84
2022/09/28 11:16:04;;;;;;;4.53;1.33;;;12.50;99.90;;;;;;4895838;28;91274;-82
2022/09/28 11:18:33;;;;;;;1.30;0.38;;;12.70;99.90;;;;;;4894251;28;92215;-81
2022/09/28 11:21:24;;;;;;;1.20;0.30;;;12.80;99.90;;;;;;4899771;28;92328;-80
2022/09/28 11:24:05;;;;;;;1.58;0.30;;;12.80;99.90;;;;;;4904141;28;91665;-77
2022/09/28 11:26:40;;;;;;;1.10;0.25;;;12.80;99.90;;;;;;4882578;28;91669;-77
2022/09/28 11:29:19;;;;;;;1.13;0.40;;;12.70;99.90;;;;;;4887353;28;93161;-78
2022/09/28 11:31:46;;;;;;;1.60;0.40;;;12.70;99.90;;;;;;4898669;28;92851;-78
2022/09/28 11:34:19;;;;;;;1.60;0.43;;;12.70;99.90;;;;;;4902102;28;91337;-78
2022/09/28 11:37:30;;;;;;;2.97;0.73;;;12.80;99.90;;;;;;4900145;28;91295;-78
2022/09/28 11:40:29;;;;;;;2.75;0.98;;;12.80;99.90;;;;;;4815470;29;92104;-78
2022/09/28 11:43:25;;;;;;;5.72;2.67;;;12.70;99.90;;;;;;4899536;28;91913;-80
2022/09/28 11:46:02;;;;;;;1.52;0.22;;;12.60;99.90;;;;;;4900690;28;91271;-81
2022/09/28 11:48:40;;;;;;;0.82;0.20;;;12.60;99.90;;;;;;4889358;28;90675;-81
2022/09/28 11:51:29;;;;;;;1.05;0.20;;;12.80;99.90;;;;;;4899036;28;91695;-78
2022/09/28 11:54:02;;;;;;;1.25;0.10;;;13.00;99.90;;;;;;4896917;28;92293;-83
2022/09/28 11:56:38;;;;;;;1.10;0.10;;;13.00;99.90;;;;;;4903489;28;92973;-79
2022/09/28 11:59:26;;;;;;;1.02;0.10;;;13.00;99.90;;;;;;4900593;28;91356;-79
2022/09/28 12:02:09;;;;;;;0.28;0.10;;;13.20;99.90;;;;;;4892886;28;93304;-78
2022/09/28 12:04:42;;;;;;;0.82;0.10;;;13.30;99.90;;;;;;4902144;28;92062;-77
2022/09/28 12:07:15;;;;;;;0.68;0.22;;;13.40;99.90;;;;;;4910551;28;92259;-79
2022/09/28 12:09:57;;;;;;;0.80;0.20;;;13.50;99.90;;;;;;4892308;28;91999;-79
2022/09/28 12:12:33;;;;;;;0.80;0.20;;;13.40;99.90;;;;;;4898969;28;92044;-78
2022/09/28 12:15:05;;;;;;;2.13;0.43;;;13.40;99.90;;;;;;4900924;28;91193;-77
2022/09/28 12:17:41;;;;;;;0.90;0.32;;;13.50;99.90;;;;;;4899811;28;91835;-79
2022/09/28 12:20:18;;;;;;;1.02;0.20;;;13.70;99.90;;;;;;4899914;28;91958;-78
2022/09/28 12:22:52;;;;;;;1.67;0.10;;;13.60;99.90;;;;;;4898127;28;93036;-81
2022/09/28 12:25:21;;;;;;;1.60;0.20;;;13.70;99.90;;;;;;4893514;28;92296;-81
2022/09/28 12:27:55;;;;;;;1.58;0.30;;;13.80;99.90;;;;;;4899785;28;91763;-79
2022/09/28 12:30:24;;;;;;;3.92;0.52;;;13.70;99.90;;;;;;4890813;28;91324;-80
2022/09/28 12:32:50;;;;;;;2.85;0.40;;;13.70;99.90;;;;;;4890469;28;92323;-81
2022/09/28 12:35:53;;;;;;;3.80;0.20;;;13.50;99.90;;;;;;4892037;28;91354;-80
2022/09/28 12:38:24;;;;;;;1.27;0.30;;;13.50;99.90;;;;;;4897567;28;91332;-81
2022/09/28 12:41:03;;;;;;;3.22;0.40;;;13.70;99.90;;;;;;4896484;28;91418;-83
2022/09/28 12:43:54;;;;;;;0.95;0.10;;;13.80;99.90;;;;;;4886573;28;92327;-79
2022/09/28 12:46:22;;;;;;;0.60;0.10;;;13.50;99.90;;;;;;4898288;28;91975;-82
2022/09/28 12:49:15;;;;;;;0.80;0.20;;;13.00;99.90;;;;;;4897714;28;92369;-82
2022/09/28 12:51:50;;;;;;;0.93;0.10;;;12.80;99.90;;;;;;4895845;28;91729;-79
2022/09/28 12:54:18;;;;;;;0.60;0.10;;;12.70;99.90;;;;;;4897305;28;92683;-82
2022/09/28 12:56:55;;;;;;;0.85;0.10;;;12.70;99.90;;;;;;4897602;28;92052;-78
2022/09/28 12:59:30;;;;;;;1.05;0.10;;;12.70;99.90;;;;;;4898699;28;91599;-77
2022/09/28 13:02:10;;;;;;;1.63;0.10;;;12.50;99.90;;;;;;4898099;28;91413;-81
2022/09/28 13:04:58;;;;;;;1.15;0.10;;;12.40;99.90;;;;;;4899195;28;92138;-82
2022/09/28 13:07:36;;;;;;;0.93;0.10;;;12.70;99.90;;;;;;4902250;28;91920;-82
2022/09/28 13:10:16;;;;;;;1.85;0.60;;;12.60;99.90;;;;;;4897860;28;91293;-81
2022/09/28 13:12:44;;;;;;;1.02;0.15;;;12.80;99.90;;;;;;4894750;28;91640;-82
2022/09/28 13:15:20;;;;;;;0.90;0.13;;;12.90;99.90;;;;;;4896059;28;93105;-83
2022/09/28 13:18:15;;;;;;;2.28;0.55;;;12.80;99.90;;;;;;4895509;28;92256;-81
2022/09/28 13:21:04;;;;;;;4.70;1.02;;;12.80;99.90;;;;;;4874525;28;91422;-80
2022/09/28 13:23:40;;;;;;;2.95;0.57;;;12.90;99.90;;;;;;4897293;28;91727;-81
2022/09/28 13:26:24;;;;;;;1.88;0.50;;;12.90;99.90;;;;;;4888047;28;92761;-82
2022/09/28 13:28:53;;;;;;;1.50;0.20;;;12.70;99.90;;;;;;4894966;28;91343;-84
2022/09/28 13:31:22;;;;;;;0.55;0.10;;;12.70;99.90;;;;;;4896665;28;92598;-82
2022/09/28 13:33:50;;;;;;;2.33;0.30;;;12.50;99.90;;;;;;4896827;28;91483;-80
2022/09/28 13:36:27;;;;;;;5.25;1.02;;;12.50;99.90;;;;;;4896978;28;92087;-82
2022/09/28 13:39:00;;;;;;;2.97;0.68;;;12.60;99.90;;;;;;4893460;28;91420;-81
2022/09/28 13:41:31;;;;;;;5.32;1.60;;;12.90;99.90;;;;;;4896990;28;92665;-81
2022/09/28 13:44:05;;;;;;;6.15;1.88;;;12.90;99.90;;;;;;4892806;28;92131;-80
2022/09/28 13:47:01;;;;;;;5.40;1.45;;;12.80;99.90;;;;;;4896195;28;91761;-84
2022/09/28 13:49:47;;;;;;;4.63;1.45;;;12.90;99.90;;;;;;4896012;28;92062;-81
2022/09/28 13:52:21;;;;;;;2.95;1.00;;;12.90;99.90;;;;;;4890211;28;91235;-82
2022/09/28 13:54:53;;;;;;;1.23;0.20;;;12.80;99.90;;;;;;4892903;28;91870;-81
2022/09/28 13:57:53;;;;;;;0.90;0.20;;;12.80;99.90;;;;;;4895964;28;91766;-81
2022/09/28 14:00:45;;;;;;;1.40;0.20;;;12.60;99.90;;;;;;4872069;28;93514;-84
2022/09/28 14:03:24;;;;;;;0.35;0.10;;;12.50;99.90;;;;;;4893931;28;91460;-80
2022/09/28 14:06:02;;;;;;;0.30;0.00;;;12.40;99.90;;;;;;4878602;28;91399;-81
2022/09/28 14:08:35;;;;;;;0.28;0.03;;;12.20;99.90;;;;;;4900401;28;93227;-83
2022/09/28 14:11:33;;;;;;;0.85;0.20;;;12.10;99.90;;;;;;4896320;28;93274;-84
2022/09/28 14:14:28;;;;;;;0.88;0.30;;;12.10;99.90;;;;;;4840859;28;91976;-81
2022/09/28 14:17:20;;;;;;;1.05;0.20;;;12.00;99.90;;;;;;4880950;28;91441;-83
2022/09/28 14:19:59;;;;;;;1.35;0.57;;;12.20;99.90;;;;;;4854674;28;92316;-83
2022/09/28 14:22:31;;;;;;;0.57;0.10;;;12.40;99.90;;;;;;4896033;28;91970;-83
2022/09/28 14:25:14;;;;;;;0.50;0.10;;;12.40;99.90;;;;;;4896007;28;92021;-83
2022/09/28 14:28:16;;;;;;;3.92;0.50;;;12.50;99.90;;;;;;4889721;28;91335;-81
2022/09/28 14:30:42;;;;;;;1.85;0.40;;;12.30;99.90;;;;;;4883104;28;91911;-81
2022/09/28 14:33:20;;;;;;;2.38;0.30;;;12.40;99.90;;;;;;4895489;28;92046;-84
2022/09/28 14:35:48;;;;;;;3.30;1.10;;;12.40;99.90;;;;;;4891251;28;93567;-83
2022/09/28 14:41:23;;;;;;;2.25;0.35;;;12.70;99.90;;;;;;4895755;28;91892;-84
2022/09/28 14:43:49;;;;;;;1.35;0.43;;;12.40;99.90;;;;;;4891159;28;91725;-80
2022/09/28 14:46:18;;;;;;;3.28;1.25;;;12.30;99.90;;;;;;4893879;28;91409;-84
2022/09/28 14:48:51;;;;;;;4.20;1.80;;;12.30;99.90;;;;;;4857847;28;1225340;-82
2022/09/28 14:51:25;;;;;;;2.45;0.85;;;12.30;99.90;;;;;;4890077;28;92330;-83
2022/09/28 14:53:53;;;;;;;7.90;2.83;;;12.40;99.90;;;;;;4895155;28;91430;-82
2022/09/28 14:56:19;;;;;;;4.07;1.80;;;12.30;99.90;;;;;;4890738;28;91456;-82
2022/09/28 14:58:50;;;;;;;5.93;1.60;;;12.10;99.90;;;;;;4897337;28;91317;-81
2022/09/28 15:01:19;;;;;;;3.15;0.90;;;11.80;99.90;;;;;;4895973;28;93307;-82
2022/09/28 15:03:49;;;;;;;2.42;0.43;;;11.70;99.90;;;;;;4893570;28;92851;-83
2022/09/28 15:06:15;;;;;;;2.90;1.50;;;11.60;99.90;;;;;;4896566;28;92069;-83
2022/09/28 15:08:41;;;;;;;1.80;0.75;;;11.50;99.90;;;;;;4897759;28;92035;-82
2022/09/28 15:11:17;;;;;;;1.95;0.82;;;11.50;99.90;;;;;;4896015;28;91954;-83
2022/09/28 15:13:43;;;;;;;6.95;3.50;;;11.40;99.90;;;;;;4897002;28;91230;-81
2022/09/28 15:16:12;;;;;;;2.33;0.50;;;11.60;99.90;;;;;;4897361;28;91445;-82
2022/09/28 15:18:58;;;;;;;3.08;0.90;;;11.50;99.90;;;;;;4898882;28;90742;-79
2022/09/28 15:21:34;;;;;;;3.42;1.52;;;11.50;99.90;;;;;;4884375;28;92191;-82
2022/09/28 15:24:00;;;;;;;9.85;1.20;;;11.50;99.90;;;;;;4894662;28;91404;-84
2022/09/28 15:26:33;;;;;;;2.20;0.60;;;11.50;99.90;;;;;;4898522;28;92684;-82
2022/09/28 15:29:02;;;;;;;2.03;0.70;;;11.40;99.90;;;;;;4880542;28;91967;-82
2022/09/28 15:31:33;;;;;;;1.25;0.20;;;11.30;99.90;;;;;;4896510;28;91936;-80
2022/09/28 15:36:45;;;;;;;1.42;0.20;;;11.30;99.90;;;;;;4896870;28;92031;-83
2022/09/28 15:39:21;;;;;;;0.57;0.10;;;11.10;99.90;;;;;;4896249;28;91363;-81
2022/09/28 15:41:49;;;;;;;1.08;0.52;;;11.20;99.90;;;;;;4895960;28;91609;-81
2022/09/28 15:44:27;;;;;;;2.38;0.10;;;11.30;99.90;;;;;;4899555;28;91742;-80
2022/09/28 15:47:14;;;;;;;2.00;0.10;;;11.30;99.90;;;;;;4892534;28;91259;-83
2022/09/28 15:49:44;;;;;;;1.10;0.35;;;11.30;99.90;;;;;;4895878;28;91469;-84
2022/09/28 15:52:45;;;;;;;0.88;0.10;;;11.00;99.90;;;;;;4895360;28;93214;-80
2022/09/28 15:55:23;;;;;;;1.13;0.30;;;11.00;99.90;;;;;;4897379;28;92996;-80
2022/09/28 15:57:49;;;;;;;1.50;0.38;;;11.10;99.90;;;;;;4896163;28;91266;-83
2022/09/28 16:00:28;;;;;;;3.58;1.02;;;11.00;99.90;;;;;;4895980;28;91814;-83
2022/09/28 16:03:07;;;;;;;5.38;1.65;;;11.00;99.90;;;;;;4893511;28;91692;-85
2022/09/28 16:06:00;;;;;;;3.22;0.77;;;11.10;99.90;;;;;;4891667;28;92123;-81
2022/09/28 16:08:42;;;;;;;3.08;0.50;;;11.10;99.90;;;;;;4883268;28;91298;-80
2022/09/28 16:11:15;;;;;;;1.30;0.30;;;11.10;99.90;;;;;;4896438;28;91477;-80
2022/09/28 16:13:50;;;;;;;1.70;0.28;;;11.10;99.90;;;;;;4884055;28;93842;-80
2022/09/28 16:16:16;;;;;;;2.88;0.40;;;11.20;99.90;;;;;;4891922;28;92019;-83
2022/09/28 16:18:47;;;;;;;2.35;0.32;;;11.20;99.90;;;;;;4898589;28;92260;-82
2022/09/28 16:21:28;;;;;;;2.25;0.38;;;11.20;99.90;;;;;;4898730;28;91303;-85